createdAt,value
2018-04-16T00:02:27.724Z,12.50
2018-04-16T00:04:56.117Z,12.23
2018-04-16T00:07:24.724Z,12.40
2018-04-16T00:09:53.075Z,12.63
2018-04-16T00:12:21.516Z,12.43
2018-04-16T00:14:49.906Z,11.60
2018-04-16T00:17:18.393Z,11.67
2018-04-16T00:19:46.768Z,12.53
2018-04-16T00:22:15.368Z,11.47
2018-04-16T00:24:44.080Z,11.73
2018-04-16T00:27:12.556Z,11.53
2018-04-16T00:29:40.911Z,11.63
2018-04-16T00:32:14.936Z,12.33
2018-04-16T00:34:49.010Z,11.70
2018-04-16T00:40:30.441Z,12.23
2018-04-16T00:43:04.626Z,11.37
2018-04-16T00:45:39.020Z,11.60
2018-04-16T00:48:13.297Z,11.00
2018-04-16T00:50:47.973Z,12.57
2018-04-16T00:53:22.017Z,10.93
2018-04-16T00:55:56.075Z,11.87
2018-04-16T00:58:30.082Z,12.33
2018-04-16T01:01:04.142Z,12.17
2018-04-16T01:03:37.942Z,11.23
2018-04-16T01:06:12.019Z,11.87
2018-04-16T01:08:46.279Z,12.40
2018-04-16T01:11:20.047Z,16.90
2018-04-16T01:13:54.235Z,15.70
2018-04-16T01:19:33.183Z,20.07
2018-04-16T01:22:07.224Z,20.33
2018-04-16T01:24:41.555Z,19.30
2018-04-16T01:30:20.529Z,11.30
2018-04-16T01:32:54.427Z,11.63
2018-04-16T01:35:28.255Z,11.10
2018-04-16T01:38:02.702Z,14.10
2018-04-16T01:40:37.108Z,15.20
2018-04-16T01:43:11.013Z,14.33
2018-04-16T01:45:45.308Z,12.30
2018-04-16T01:48:19.117Z,11.83
2018-04-16T01:50:53.040Z,11.63
2018-04-16T01:53:27.166Z,15.40
2018-04-16T01:56:00.977Z,13.87
2018-04-16T01:58:35.044Z,14.57
2018-04-16T02:01:09.128Z,14.23
2018-04-16T02:03:43.262Z,13.23
2018-04-16T02:06:17.289Z,15.20
2018-04-16T02:08:51.230Z,15.67
2018-04-16T02:11:25.531Z,13.53
2018-04-16T02:13:59.897Z,15.87
2018-04-16T02:16:33.908Z,15.13
2018-04-16T02:19:07.971Z,14.70
2018-04-16T02:21:42.398Z,15.27
2018-04-16T02:24:17.379Z,16.23
2018-04-16T02:26:51.745Z,14.17
2018-04-16T02:29:25.794Z,13.60
2018-04-16T02:31:59.750Z,10.77
2018-04-16T02:34:33.834Z,11.67
2018-04-16T02:37:07.905Z,11.83
2018-04-16T02:42:46.552Z,11.67
2018-04-16T02:45:20.674Z,12.10
2018-04-16T02:47:54.665Z,13.07
2018-04-16T02:50:28.581Z,13.17
2018-04-16T02:53:03.080Z,12.73
2018-04-16T02:55:37.285Z,11.60
2018-04-16T02:58:11.080Z,12.47
2018-04-16T03:00:45.216Z,13.00
2018-04-16T03:03:19.085Z,12.37
2018-04-16T03:05:53.296Z,12.47
2018-04-16T03:08:28.108Z,13.30
2018-04-16T03:11:02.181Z,13.50
2018-04-16T03:13:36.119Z,12.87
2018-04-16T03:16:10.318Z,13.47
2018-04-16T03:18:44.189Z,13.60
2018-04-16T03:21:18.234Z,13.13
2018-04-16T03:23:52.149Z,13.17
2018-04-16T03:26:26.232Z,11.97
2018-04-16T03:29:00.058Z,12.73
2018-04-16T03:31:34.172Z,13.07
2018-04-16T03:34:09.033Z,13.30
2018-04-16T03:36:43.129Z,13.43
2018-04-16T03:39:17.042Z,13.90
2018-04-16T03:41:50.987Z,14.33
2018-04-16T03:44:24.909Z,13.30
2018-04-16T03:46:58.973Z,17.50
2018-04-16T03:49:33.331Z,14.50
2018-04-16T03:52:09.193Z,13.97
2018-04-16T03:54:38.136Z,20.40
2018-04-16T03:57:06.493Z,14.27
2018-04-16T03:59:34.875Z,13.00
2018-04-16T04:02:03.237Z,13.23
2018-04-16T04:04:31.681Z,23.93
2018-04-16T04:07:00.207Z,24.53
2018-04-16T04:09:28.713Z,13.90
2018-04-16T04:11:57.225Z,13.73
2018-04-16T04:14:25.646Z,15.17
2018-04-16T04:16:54.259Z,15.47
2018-04-16T04:19:22.726Z,13.43
2018-04-16T04:21:51.157Z,13.87
2018-04-16T04:24:31.849Z,21.00
2018-04-16T04:27:12.247Z,75.27
2018-04-16T04:29:52.961Z,43.37
2018-04-16T04:32:21.512Z,15.27
2018-04-16T04:34:49.960Z,12.73
2018-04-16T04:37:18.345Z,11.70
2018-04-16T04:39:47.329Z,12.17
2018-04-16T04:42:15.777Z,12.13
2018-04-16T04:44:44.244Z,12.40
2018-04-16T04:47:12.933Z,13.87
2018-04-16T04:49:41.364Z,14.00
2018-04-16T04:52:10.148Z,12.90
2018-04-16T04:54:39.058Z,13.53
2018-04-16T04:57:08.993Z,13.20
2018-04-16T04:59:37.350Z,33.17
2018-04-16T05:02:06.589Z,22.07
2018-04-16T05:04:36.560Z,22.37
2018-04-16T05:07:04.985Z,27.23
2018-04-16T05:09:34.250Z,28.40
2018-04-16T05:12:03.242Z,34.27
2018-04-16T05:14:31.786Z,43.53
2018-04-16T05:17:00.507Z,28.63
2018-04-16T05:19:28.887Z,25.40
2018-04-16T05:21:57.962Z,26.97
2018-04-16T05:24:26.605Z,27.13
2018-04-16T05:26:55.104Z,25.27
2018-04-16T05:29:23.769Z,26.10
2018-04-16T05:31:52.649Z,34.67
2018-04-16T05:34:21.030Z,34.07
2018-04-16T05:36:49.679Z,32.00
2018-04-16T05:39:18.845Z,30.73
2018-04-16T05:41:47.275Z,29.33
2018-04-16T05:44:16.163Z,28.70
2018-04-16T05:46:44.592Z,26.70
2018-04-16T05:49:13.003Z,31.07
2018-04-16T05:51:41.353Z,28.97
2018-04-16T05:54:10.104Z,30.47
2018-04-16T05:56:38.525Z,27.03
2018-04-16T05:59:06.905Z,27.90
2018-04-16T06:01:36.263Z,30.47
2018-04-16T06:04:04.710Z,28.70
2018-04-16T06:06:33.077Z,28.13
2018-04-16T06:09:01.511Z,28.03
2018-04-16T06:11:30.336Z,25.13
2018-04-16T06:13:59.277Z,25.50
2018-04-16T06:16:27.719Z,25.93
2018-04-16T06:18:56.697Z,28.20
2018-04-16T06:21:25.361Z,35.10
2018-04-16T06:23:53.788Z,32.83
2018-04-16T06:26:22.815Z,30.13
2018-04-16T06:28:51.295Z,28.53
2018-04-16T06:31:19.692Z,27.27
2018-04-16T06:33:48.340Z,69.37
2018-04-16T06:36:16.874Z,60.93
2018-04-16T06:38:48.925Z,63.27
2018-04-16T06:41:17.807Z,29.53
2018-04-16T06:43:46.165Z,43.23
2018-04-16T06:46:15.514Z,34.77
2018-04-16T06:48:44.112Z,31.17
2018-04-16T06:51:12.596Z,27.77
2018-04-16T06:53:40.997Z,24.53
2018-04-16T06:56:10.522Z,26.07
2018-04-16T06:58:38.956Z,22.77
2018-04-16T07:01:08.004Z,20.97
2018-04-16T07:03:36.726Z,21.23
2018-04-16T07:06:05.961Z,21.50
2018-04-16T07:08:34.329Z,20.87
2018-04-16T07:11:02.756Z,20.93
2018-04-16T07:13:31.135Z,20.03
2018-04-16T07:15:59.674Z,20.90
2018-04-16T07:18:28.347Z,21.47
2018-04-16T07:20:57.054Z,21.37
2018-04-16T07:23:25.659Z,20.93
2018-04-16T07:25:54.037Z,21.37
2018-04-16T07:28:22.742Z,24.30
2018-04-16T07:30:51.591Z,22.57
2018-04-16T07:33:20.320Z,22.33
2018-04-16T07:35:49.084Z,23.03
2018-04-16T07:38:18.065Z,23.33
2018-04-16T07:40:47.586Z,23.00
2018-04-16T07:43:16.063Z,24.13
2018-04-16T07:45:44.978Z,28.67
2018-04-16T07:48:13.839Z,32.70
2018-04-16T07:50:42.622Z,30.00
2018-04-16T07:53:11.057Z,27.77
2018-04-16T07:55:39.523Z,31.37
2018-04-16T07:58:07.883Z,33.17
2018-04-16T08:00:36.245Z,29.63
2018-04-16T08:03:04.615Z,31.20
2018-04-16T08:05:33.451Z,35.83
2018-04-16T08:08:01.915Z,37.17
2018-04-16T08:10:30.313Z,38.97
2018-04-16T08:12:59.021Z,33.43
2018-04-16T08:15:27.852Z,34.00
2018-04-16T08:17:56.202Z,28.93
2018-04-16T08:20:24.807Z,28.40
2018-04-16T08:22:53.432Z,28.30
2018-04-16T08:25:21.889Z,30.40
2018-04-16T08:27:50.359Z,35.27
2018-04-16T08:30:18.730Z,40.20
2018-04-16T08:32:48.049Z,27.00
2018-04-16T08:35:16.611Z,17.00
2018-04-16T08:37:45.773Z,16.97
2018-04-16T08:40:14.244Z,18.53
2018-04-16T08:42:43.234Z,16.23
2018-04-16T08:45:12.023Z,20.00
2018-04-16T08:47:40.424Z,20.53
2018-04-16T08:50:09.298Z,21.33
2018-04-16T08:52:38.360Z,23.50
2018-04-16T08:55:07.004Z,20.83
2018-04-16T08:57:35.465Z,18.23
2018-04-16T09:00:03.943Z,18.40
2018-04-16T09:02:32.382Z,20.67
2018-04-16T09:05:00.738Z,19.63
2018-04-16T09:07:29.336Z,22.13
2018-04-16T09:09:57.966Z,20.83
2018-04-16T09:12:26.641Z,18.73
2018-04-16T09:14:55.643Z,18.03
2018-04-16T09:17:24.153Z,19.83
2018-04-16T09:19:52.487Z,20.97
2018-04-16T09:22:21.082Z,21.17
2018-04-16T09:24:49.929Z,21.00
2018-04-16T09:27:18.712Z,21.70
2018-04-16T09:29:47.111Z,21.10
2018-04-16T09:32:16.267Z,20.23
2018-04-16T09:34:44.638Z,19.57
2018-04-16T09:37:13.077Z,20.80
2018-04-16T09:39:41.736Z,19.40
2018-04-16T09:42:10.441Z,19.73
2018-04-16T09:44:39.338Z,19.97
2018-04-16T09:47:08.012Z,21.67
2018-04-16T09:49:36.846Z,23.23
2018-04-16T09:52:05.467Z,22.20
2018-04-16T09:54:34.357Z,22.53
2018-04-16T09:57:02.716Z,22.47
2018-04-16T09:59:31.364Z,21.23
2018-04-16T10:01:59.740Z,23.77
2018-04-16T10:04:28.461Z,21.00
2018-04-16T10:06:57.117Z,21.00
2018-04-16T10:09:25.565Z,21.17
2018-04-16T10:11:53.941Z,21.87
2018-04-16T10:14:23.270Z,20.90
2018-04-16T10:16:51.930Z,21.60
2018-04-16T10:19:20.932Z,22.10
2018-04-16T10:21:49.351Z,21.90
2018-04-16T10:24:18.061Z,17.77
2018-04-16T10:26:46.700Z,13.70
2018-04-16T10:29:15.402Z,13.27
2018-04-16T10:31:44.561Z,12.70
2018-04-16T10:34:13.277Z,11.87
2018-04-16T10:36:42.842Z,12.13
2018-04-16T10:39:11.860Z,11.57
2018-04-16T10:41:41.454Z,11.93
2018-04-16T10:44:09.837Z,12.23
2018-04-16T10:46:38.563Z,11.80
2018-04-16T10:49:07.394Z,11.83
2018-04-16T10:51:35.771Z,11.60
2018-04-16T10:54:04.485Z,13.13
2018-04-16T10:56:32.868Z,12.80
2018-04-16T10:59:02.644Z,12.40
2018-04-16T11:01:32.160Z,12.57
2018-04-16T11:04:00.855Z,12.53
2018-04-16T11:06:29.472Z,12.87
2018-04-16T11:08:57.853Z,12.67
2018-04-16T11:11:26.248Z,12.53
2018-04-16T11:13:55.115Z,13.23
2018-04-16T11:16:24.130Z,13.70
2018-04-16T11:18:54.084Z,14.13
2018-04-16T11:21:23.040Z,14.37
2018-04-16T11:23:52.183Z,14.23
2018-04-16T11:26:22.010Z,17.83
2018-04-16T11:28:52.215Z,15.13
2018-04-16T11:31:20.822Z,16.17
2018-04-16T11:33:50.483Z,16.40
2018-04-16T11:36:19.831Z,13.67
2018-04-16T11:38:48.656Z,12.53
2018-04-16T11:41:17.025Z,13.33
2018-04-16T11:43:45.390Z,13.10
2018-04-16T11:46:13.764Z,12.73
2018-04-16T11:48:42.164Z,13.87
2018-04-16T11:51:10.605Z,14.20
2018-04-16T11:53:38.969Z,13.47
2018-04-16T11:56:07.475Z,14.83
2018-04-16T11:58:35.911Z,12.77
2018-04-16T12:01:04.370Z,13.07
2018-04-16T12:03:32.820Z,13.50
2018-04-16T12:06:01.284Z,13.03
2018-04-16T12:08:29.835Z,13.73
2018-04-16T12:10:58.196Z,13.77
2018-04-16T12:13:26.563Z,14.07
2018-04-16T12:15:54.972Z,13.83
2018-04-16T12:18:24.439Z,13.70
2018-04-16T12:20:52.894Z,21.80
2018-04-16T12:23:21.660Z,19.07
2018-04-16T12:25:50.063Z,16.13
2018-04-16T12:28:18.587Z,14.97
2018-04-16T12:30:47.060Z,15.07
2018-04-16T12:33:16.709Z,50.00
2018-04-16T12:35:45.399Z,20.43
2018-04-16T12:38:14.266Z,14.07
2018-04-16T12:40:42.689Z,13.53
2018-04-16T12:43:11.572Z,13.87
2018-04-16T12:45:40.514Z,15.30
2018-04-16T12:48:09.012Z,15.03
2018-04-16T12:50:37.354Z,12.67
2018-04-16T12:53:06.377Z,12.53
2018-04-16T12:55:34.861Z,12.27
2018-04-16T12:58:03.310Z,11.57
2018-04-16T13:00:32.209Z,12.40
2018-04-16T13:03:01.079Z,11.97
2018-04-16T13:05:29.668Z,12.33
2018-04-16T13:07:58.515Z,12.63
2018-04-16T13:10:26.939Z,13.40
2018-04-16T13:12:55.311Z,12.60
2018-04-16T13:15:23.904Z,13.63
2018-04-16T13:17:52.682Z,13.07
2018-04-16T13:20:21.477Z,12.80
2018-04-16T13:22:49.862Z,13.43
2018-04-16T13:25:18.759Z,13.80
2018-04-16T13:27:47.181Z,13.90
2018-04-16T13:30:15.549Z,13.30
2018-04-16T13:32:44.003Z,12.67
2018-04-16T13:35:12.811Z,13.10
2018-04-16T13:37:41.201Z,15.20
2018-04-16T13:40:09.837Z,13.97
2018-04-16T13:42:38.416Z,12.47
2018-04-16T13:45:07.603Z,13.37
2018-04-16T13:47:35.975Z,13.27
2018-04-16T13:50:04.520Z,12.13
2018-04-16T13:52:33.114Z,12.43
2018-04-16T13:55:02.114Z,11.60
2018-04-16T13:57:30.940Z,20.70
2018-04-16T13:59:59.419Z,10.83
2018-04-16T14:02:27.941Z,8.83
2018-04-16T14:04:56.855Z,9.20
2018-04-16T14:07:26.048Z,9.77
2018-04-16T14:09:54.479Z,13.23
2018-04-16T14:12:22.856Z,10.00
2018-04-16T14:14:51.392Z,9.40
2018-04-16T14:17:19.964Z,9.73
2018-04-16T14:19:48.570Z,9.57
2018-04-16T14:22:16.995Z,7.77
2018-04-16T14:24:45.743Z,10.17
2018-04-16T14:27:14.099Z,8.37
2018-04-16T14:29:43.418Z,8.20
2018-04-16T14:32:11.800Z,8.60
2018-04-16T14:34:40.780Z,8.20
2018-04-16T14:37:09.150Z,7.63
2018-04-16T14:39:37.918Z,8.43
2018-04-16T14:42:06.728Z,7.10
2018-04-16T14:44:35.362Z,8.27
2018-04-16T14:47:04.120Z,7.37
2018-04-16T14:49:32.507Z,8.87
2018-04-16T14:52:01.121Z,7.70
2018-04-16T14:54:29.591Z,7.67
2018-04-16T14:56:58.796Z,9.33
2018-04-16T14:59:27.919Z,8.53
2018-04-16T15:01:56.345Z,8.57
2018-04-16T15:04:24.718Z,8.13
2018-04-16T15:06:53.076Z,8.50
2018-04-16T15:09:21.449Z,9.23
2018-04-16T15:11:49.828Z,15.97
2018-04-16T15:14:18.232Z,18.27
2018-04-16T15:16:46.600Z,25.83
2018-04-16T15:19:15.733Z,32.70
2018-04-16T15:21:44.428Z,21.47
2018-04-16T15:24:12.824Z,21.10
2018-04-16T15:26:41.476Z,20.70
2018-04-16T15:29:12.335Z,19.27
2018-04-16T15:31:40.812Z,20.23
2018-04-16T15:34:11.383Z,21.50
2018-04-16T15:36:40.446Z,21.40
2018-04-16T15:39:09.663Z,21.50
2018-04-16T15:41:38.220Z,21.00
2018-04-16T15:44:09.516Z,20.60
2018-04-16T15:46:39.224Z,18.67
2018-04-16T15:49:08.560Z,19.30
2018-04-16T15:51:38.805Z,18.93
2018-04-16T15:54:08.185Z,19.97
2018-04-16T15:56:36.778Z,20.60
2018-04-16T15:59:06.012Z,22.10
2018-04-16T16:01:35.534Z,26.17
2018-04-16T16:04:03.924Z,31.03
2018-04-16T16:06:34.923Z,22.20
2018-04-16T16:09:03.296Z,24.77
2018-04-16T16:11:31.660Z,23.97
2018-04-16T16:14:00.022Z,27.67
2018-04-16T16:16:28.410Z,26.43
2018-04-16T16:18:56.785Z,25.57
2018-04-16T16:21:25.780Z,28.97
2018-04-16T16:23:54.164Z,24.80
2018-04-16T16:26:22.565Z,25.60
2018-04-16T16:28:51.277Z,25.97
2018-04-16T16:31:20.112Z,25.83
2018-04-16T16:33:49.014Z,28.33
2018-04-16T16:36:17.971Z,26.67
2018-04-16T16:38:46.819Z,27.23
2018-04-16T16:41:15.589Z,27.87
2018-04-16T16:43:44.429Z,24.33
2018-04-16T16:46:15.337Z,24.57
2018-04-16T16:48:47.694Z,24.30
2018-04-16T16:51:16.157Z,27.03
2018-04-16T16:53:44.536Z,27.63
2018-04-16T16:56:12.935Z,26.43
2018-04-16T16:58:41.648Z,25.00
2018-04-16T17:01:10.045Z,25.00
2018-04-16T17:03:39.280Z,22.30
2018-04-16T17:06:07.684Z,21.23
2018-04-16T17:08:36.060Z,22.27
2018-04-16T17:11:04.801Z,22.47
2018-04-16T17:13:34.910Z,23.60
2018-04-16T17:16:03.378Z,24.00
2018-04-16T17:18:31.760Z,24.73
2018-04-16T17:21:00.220Z,27.67
2018-04-16T17:23:28.888Z,23.83
2018-04-16T17:25:58.207Z,16.80
2018-04-16T17:28:26.676Z,14.77
2018-04-16T17:30:55.147Z,14.40
2018-04-16T17:33:25.230Z,14.37
2018-04-16T17:35:53.667Z,13.97
2018-04-16T17:38:22.556Z,18.73
2018-04-16T17:40:51.137Z,17.00
2018-04-16T17:43:20.031Z,15.87
2018-04-16T17:45:48.816Z,15.17
2018-04-16T17:48:17.666Z,14.07
2018-04-16T17:50:46.700Z,15.07
2018-04-16T17:53:16.448Z,16.33
2018-04-16T17:55:46.081Z,14.60
2018-04-16T17:58:14.464Z,15.23
2018-04-16T18:00:42.860Z,14.13
2018-04-16T18:03:11.882Z,15.87
2018-04-16T18:05:41.738Z,15.83
2018-04-16T18:08:10.293Z,16.60
2018-04-16T18:10:40.426Z,15.73
2018-04-16T18:13:09.122Z,19.20
2018-04-16T18:15:37.768Z,20.10
2018-04-16T18:18:06.375Z,17.90
2018-04-16T18:20:34.956Z,18.37
2018-04-16T18:23:04.676Z,20.23
2018-04-16T18:25:33.044Z,22.47
2018-04-16T18:28:03.124Z,20.87
2018-04-16T18:30:32.525Z,20.53
2018-04-16T18:33:01.074Z,21.93
2018-04-16T18:38:05.234Z,18.80
2018-04-16T18:40:33.959Z,17.73
2018-04-16T18:43:03.244Z,16.73
2018-04-16T18:45:31.928Z,17.83
2018-04-16T18:48:00.534Z,17.00
2018-04-16T18:50:29.119Z,16.97
2018-04-16T18:52:57.634Z,15.03
2018-04-16T18:55:26.421Z,17.40
2018-04-16T18:57:54.961Z,18.10
2018-04-16T19:00:23.859Z,18.00
2018-04-16T19:02:52.284Z,18.10
2018-04-16T19:05:21.304Z,25.67
2018-04-16T19:07:50.113Z,17.17
2018-04-16T19:10:18.950Z,16.87
2018-04-16T19:12:47.762Z,16.57
2018-04-16T19:15:16.190Z,15.07
2018-04-16T19:17:50.254Z,14.73
2018-04-16T19:20:24.199Z,14.23
2018-04-16T19:22:52.580Z,15.43
2018-04-16T19:25:21.103Z,13.93
2018-04-16T19:27:55.322Z,14.70
2018-04-16T19:30:23.815Z,13.53
2018-04-16T19:32:57.693Z,13.47
2018-04-16T19:35:26.296Z,15.33
2018-04-16T19:37:54.839Z,14.17
2018-04-16T19:40:23.225Z,14.97
2018-04-16T19:42:51.603Z,16.03
2018-04-16T19:45:21.182Z,16.07
2018-04-16T19:47:49.571Z,15.73
2018-04-16T19:50:18.011Z,16.30
2018-04-16T19:52:46.492Z,16.93
2018-04-16T19:55:14.859Z,17.93
2018-04-16T19:57:48.871Z,18.23
2018-04-16T20:00:17.581Z,18.80
2018-04-16T20:02:52.054Z,18.40
2018-04-16T20:05:20.627Z,20.23
2018-04-16T20:07:48.994Z,20.57
2018-04-16T20:10:17.388Z,19.03
2018-04-16T20:12:45.794Z,21.10
2018-04-16T20:15:14.163Z,20.07
2018-04-16T20:17:42.566Z,21.70
2018-04-16T20:20:10.972Z,20.43
2018-04-16T20:22:39.803Z,21.00
2018-04-16T20:25:08.265Z,20.97
2018-04-16T20:27:36.738Z,20.60
2018-04-16T20:30:05.125Z,21.20
2018-04-16T20:32:33.667Z,21.50
2018-04-16T20:35:02.714Z,21.70
2018-04-16T20:37:31.441Z,21.83
2018-04-16T20:39:59.901Z,21.63
2018-04-16T20:42:28.276Z,20.60
2018-04-16T20:45:03.957Z,20.73
2018-04-16T20:47:32.479Z,21.27
2018-04-16T20:50:00.887Z,20.83
2018-04-16T20:52:29.324Z,21.93
2018-04-16T20:54:57.752Z,21.13
2018-04-16T20:57:26.136Z,21.77
2018-04-16T20:59:54.548Z,23.97
2018-04-16T21:02:22.925Z,23.00
2018-04-16T21:04:51.388Z,22.70
2018-04-16T21:07:19.794Z,22.67
2018-04-16T21:09:48.484Z,22.40
2018-04-16T21:12:16.870Z,23.20
2018-04-16T21:14:45.235Z,21.27
2018-04-16T21:17:14.747Z,21.80
2018-04-16T21:19:44.351Z,20.20
2018-04-16T21:22:12.890Z,21.93
2018-04-16T21:24:41.735Z,22.60
2018-04-16T21:27:10.183Z,21.93
2018-04-16T21:29:38.755Z,21.77
2018-04-16T21:32:07.195Z,21.40
2018-04-16T21:34:35.937Z,20.83
2018-04-16T21:37:04.339Z,22.27
2018-04-16T21:39:32.929Z,23.00
2018-04-16T21:42:01.362Z,20.83
2018-04-16T21:44:30.205Z,20.53
2018-04-16T21:46:58.968Z,20.93
2018-04-16T21:49:29.259Z,21.37
2018-04-16T21:51:58.706Z,21.80
2018-04-16T21:54:27.615Z,20.80
2018-04-16T21:56:56.356Z,21.40
2018-04-16T21:59:24.871Z,21.63
2018-04-16T22:01:53.387Z,20.93
2018-04-16T22:04:21.748Z,19.60
2018-04-16T22:06:50.208Z,19.77
2018-04-16T22:09:18.641Z,21.60
2018-04-16T22:11:47.167Z,21.27
2018-04-16T22:14:15.615Z,19.13
2018-04-16T22:16:43.998Z,20.70
2018-04-16T22:19:12.368Z,19.57
2018-04-16T22:21:40.797Z,20.17
2018-04-16T22:24:09.218Z,19.17
2018-04-16T22:26:37.580Z,20.60
2018-04-16T22:29:06.180Z,22.07
2018-04-16T22:31:34.764Z,20.73
2018-04-16T22:34:03.449Z,19.33
2018-04-16T22:36:32.068Z,19.40
2018-04-16T22:39:00.468Z,18.80
2018-04-16T22:41:28.818Z,21.30
2018-04-16T22:43:57.175Z,20.50
2018-04-16T22:46:25.539Z,22.63
2018-04-16T22:48:53.946Z,22.50
2018-04-16T22:51:22.379Z,20.37
2018-04-16T22:53:50.737Z,23.97
2018-04-16T22:56:19.462Z,25.20
2018-04-16T22:58:47.865Z,25.23
2018-04-16T23:01:16.236Z,21.90
2018-04-16T23:03:45.328Z,21.53
2018-04-16T23:06:14.259Z,21.03
2018-04-16T23:08:43.921Z,19.07
2018-04-16T23:11:12.777Z,19.23
2018-04-16T23:13:41.661Z,17.70
2018-04-16T23:16:12.095Z,18.20
2018-04-16T23:18:41.932Z,17.37
2018-04-16T23:21:13.167Z,17.30
2018-04-16T23:23:41.755Z,18.17
2018-04-16T23:26:21.438Z,17.23
2018-04-16T23:28:49.895Z,16.87
2018-04-16T23:31:18.437Z,17.93
2018-04-16T23:33:48.079Z,16.93
2018-04-16T23:36:16.525Z,16.43
2018-04-16T23:38:46.568Z,17.23
2018-04-16T23:41:15.704Z,16.70
2018-04-16T23:43:44.509Z,15.60
2018-04-16T23:46:14.441Z,16.67
2018-04-16T23:48:43.721Z,15.83
2018-04-16T23:51:15.899Z,14.77
2018-04-16T23:53:45.960Z,14.77
2018-04-16T23:56:14.467Z,14.63
2018-04-16T23:58:45.384Z,12.63
